sensor_id;sensor_type;location;lat;lon;timestamp;pressure;altitude;pressure_sealevel;temperature;humidity
48606;BME280;8482;54.396;18.590;2023-05-02T00:00:27;101152.19;;;13.19;41.24
48606;BME280;8482;54.396;18.590;2023-05-02T00:02:53;101142.78;;;13.15;41.74
48606;BME280;8482;54.396;18.590;2023-05-02T00:05:20;101143.28;;;13.09;41.91
48606;BME280;8482;54.396;18.590;2023-05-02T00:07:45;101141.34;;;13.11;41.94
48606;BME280;8482;54.396;18.590;2023-05-02T00:10:12;101143.28;;;13.09;41.99
48606;BME280;8482;54.396;18.590;2023-05-02T00:12:38;101145.22;;;13.07;42.17
48606;BME280;8482;54.396;18.590;2023-05-02T00:15:05;101134.81;;;13.04;42.27
48606;BME280;8482;54.396;18.590;2023-05-02T00:17:31;101135.09;;;13.01;42.09
48606;BME280;8482;54.396;18.590;2023-05-02T00:19:56;101144.28;;;12.97;42.26
48606;BME280;8482;54.396;18.590;2023-05-02T00:22:22;101136.56;;;12.94;42.36
48606;BME280;8482;54.396;18.590;2023-05-02T00:24:48;101129.81;;;12.90;42.47
48606;BME280;8482;54.396;18.590;2023-05-02T00:27:14;101129.34;;;12.84;42.64
48606;BME280;8482;54.396;18.590;2023-05-02T00:29:40;101133.81;;;12.84;42.83
48606;BME280;8482;54.396;18.590;2023-05-02T00:32:06;101132.38;;;12.80;43.14
48606;BME280;8482;54.396;18.590;2023-05-02T00:34:32;101128.28;;;12.76;43.57
48606;BME280;8482;54.396;18.590;2023-05-02T00:36:58;101116.06;;;12.73;43.58
48606;BME280;8482;54.396;18.590;2023-05-02T00:39:24;101117.53;;;12.66;43.56
48606;BME280;8482;54.396;18.590;2023-05-02T00:41:59;101119.59;;;12.62;43.48
48606;BME280;8482;54.396;18.590;2023-05-02T00:44:26;101112.59;;;12.61;43.81
48606;BME280;8482;54.396;18.590;2023-05-02T00:46:54;101106.69;;;12.57;43.70
48606;BME280;8482;54.396;18.590;2023-05-02T00:49:20;101103.53;;;12.52;44.00
48606;BME280;8482;54.396;18.590;2023-05-02T00:51:46;101101.25;;;12.48;44.31
48606;BME280;8482;54.396;18.590;2023-05-02T00:54:13;101095.94;;;12.48;44.08
48606;BME280;8482;54.396;18.590;2023-05-02T00:56:39;101090.16;;;12.43;44.41
48606;BME280;8482;54.396;18.590;2023-05-02T00:59:07;101100.66;;;12.44;44.69
48606;BME280;8482;54.396;18.590;2023-05-02T01:07:59;101098.88;;;12.33;45.10
48606;BME280;8482;54.396;18.590;2023-05-02T01:11:02;101086.19;;;12.25;45.20
48606;BME280;8482;54.396;18.590;2023-05-02T01:13:33;101084.63;;;12.23;45.19
48606;BME280;8482;54.396;18.590;2023-05-02T01:16:03;101082.84;;;12.23;45.22
48606;BME280;8482;54.396;18.590;2023-05-02T01:18:35;101083.81;;;12.22;45.19
48606;BME280;8482;54.396;18.590;2023-05-02T01:21:07;101087.66;;;12.18;45.13
48606;BME280;8482;54.396;18.590;2023-05-02T01:24:06;101086.13;;;12.16;45.93
48606;BME280;8482;54.396;18.590;2023-05-02T01:29:28;101092.28;;;12.05;46.50
48606;BME280;8482;54.396;18.590;2023-05-02T01:31:56;101091.78;;;12.00;46.89
48606;BME280;8482;54.396;18.590;2023-05-02T01:34:26;101097.44;;;11.95;46.99
48606;BME280;8482;54.396;18.590;2023-05-02T01:36:56;101081.03;;;11.90;47.11
48606;BME280;8482;54.396;18.590;2023-05-02T01:39:24;101082.09;;;11.87;47.52
48606;BME280;8482;54.396;18.590;2023-05-02T01:41:55;101071.97;;;11.81;47.98
48606;BME280;8482;54.396;18.590;2023-05-02T01:44:24;101079.44;;;11.76;48.01
48606;BME280;8482;54.396;18.590;2023-05-02T01:46:54;101066.16;;;11.64;47.88
48606;BME280;8482;54.396;18.590;2023-05-02T01:49:22;101068.69;;;11.66;47.89
48606;BME280;8482;54.396;18.590;2023-05-02T01:51:50;101066.53;;;11.60;48.23
48606;BME280;8482;54.396;18.590;2023-05-02T01:54:20;101065.66;;;11.59;48.41
48606;BME280;8482;54.396;18.590;2023-05-02T01:56:48;101065.06;;;11.56;48.37
48606;BME280;8482;54.396;18.590;2023-05-02T01:59:19;101066.16;;;11.53;48.58
48606;BME280;8482;54.396;18.590;2023-05-02T02:01:49;101063.59;;;11.52;48.86
48606;BME280;8482;54.396;18.590;2023-05-02T02:04:18;101060.34;;;11.48;48.95
48606;BME280;8482;54.396;18.590;2023-05-02T02:06:53;101055.16;;;11.46;49.12
48606;BME280;8482;54.396;18.590;2023-05-02T02:09:22;101064.22;;;11.44;49.07
48606;BME280;8482;54.396;18.590;2023-05-02T02:12:15;101056.38;;;11.42;49.33
48606;BME280;8482;54.396;18.590;2023-05-02T02:18:00;101045.88;;;11.41;49.39
48606;BME280;8482;54.396;18.590;2023-05-02T02:20:30;101041.75;;;11.37;49.56
48606;BME280;8482;54.396;18.590;2023-05-02T02:22:59;101048.88;;;11.36;50.14
48606;BME280;8482;54.396;18.590;2023-05-02T02:25:28;101047.28;;;11.33;50.51
48606;BME280;8482;54.396;18.590;2023-05-02T02:27:55;101044.28;;;11.27;50.35
48606;BME280;8482;54.396;18.590;2023-05-02T02:30:21;101036.44;;;11.25;50.19
48606;BME280;8482;54.396;18.590;2023-05-02T02:32:47;101040.06;;;11.24;50.45
48606;BME280;8482;54.396;18.590;2023-05-02T02:35:12;101036.78;;;11.21;50.49
48606;BME280;8482;54.396;18.590;2023-05-02T02:37:46;101029.19;;;11.16;50.80
48606;BME280;8482;54.396;18.590;2023-05-02T02:40:29;101033.75;;;11.14;50.71
48606;BME280;8482;54.396;18.590;2023-05-02T02:49:17;101027.94;;;11.09;51.00
48606;BME280;8482;54.396;18.590;2023-05-02T02:52:00;101034.34;;;11.06;50.86
48606;BME280;8482;54.396;18.590;2023-05-02T02:54:45;101024.09;;;11.01;50.89
48606;BME280;8482;54.396;18.590;2023-05-02T02:57:36;101037.13;;;11.04;50.93
48606;BME280;8482;54.396;18.590;2023-05-02T03:00:20;101032.88;;;11.02;50.86
48606;BME280;8482;54.396;18.590;2023-05-02T03:02:47;101026.97;;;10.98;51.41
48606;BME280;8482;54.396;18.590;2023-05-02T03:05:13;101023.59;;;10.96;51.36
48606;BME280;8482;54.396;18.590;2023-05-02T03:07:40;101031.53;;;10.96;50.60
48606;BME280;8482;54.396;18.590;2023-05-02T03:10:07;101017.53;;;10.94;50.34
48606;BME280;8482;54.396;18.590;2023-05-02T03:12:32;101026.97;;;10.98;50.40
48606;BME280;8482;54.396;18.590;2023-05-02T03:15:24;101014.78;;;10.96;50.83
48606;BME280;8482;54.396;18.590;2023-05-02T03:17:56;101018.03;;;10.99;51.08
48606;BME280;8482;54.396;18.590;2023-05-02T03:20:21;101015.84;;;10.93;51.26
48606;BME280;8482;54.396;18.590;2023-05-02T03:22:48;101021.66;;;10.98;51.41
48606;BME280;8482;54.396;18.590;2023-05-02T03:25:13;101019.13;;;10.97;51.69
48606;BME280;8482;54.396;18.590;2023-05-02T03:27:40;101020.69;;;10.99;51.18
48606;BME280;8482;54.396;18.590;2023-05-02T03:30:07;101035.53;;;11.02;50.73
48606;BME280;8482;54.396;18.590;2023-05-02T03:32:32;101030.13;;;11.03;50.51
48606;BME280;8482;54.396;18.590;2023-05-02T03:34:58;101023.13;;;11.02;50.52
48606;BME280;8482;54.396;18.590;2023-05-02T03:37:25;101024.56;;;11.07;50.67
48606;BME280;8482;54.396;18.590;2023-05-02T03:39:50;101028.91;;;11.08;50.81
48606;BME280;8482;54.396;18.590;2023-05-02T03:42:16;101031.34;;;11.11;51.09
48606;BME280;8482;54.396;18.590;2023-05-02T03:44:42;101026.16;;;11.09;50.69
48606;BME280;8482;54.396;18.590;2023-05-02T03:47:08;101024.09;;;11.13;50.43
48606;BME280;8482;54.396;18.590;2023-05-02T03:49:34;101011.91;;;11.10;50.31
48606;BME280;8482;54.396;18.590;2023-05-02T03:52:00;101027.00;;;11.21;49.83
48606;BME280;8482;54.396;18.590;2023-05-02T03:54:26;101021.59;;;11.23;49.90
48606;BME280;8482;54.396;18.590;2023-05-02T03:56:55;101023.88;;;11.27;50.01
48606;BME280;8482;54.396;18.590;2023-05-02T03:59:20;101033.06;;;11.34;49.48
48606;BME280;8482;54.396;18.590;2023-05-02T04:01:50;101032.59;;;11.41;49.30
48606;BME280;8482;54.396;18.590;2023-05-02T04:04:16;101038.38;;;11.46;48.59
48606;BME280;8482;54.396;18.590;2023-05-02T04:06:41;101036.34;;;11.49;49.19
48606;BME280;8482;54.396;18.590;2023-05-02T04:09:07;101035.97;;;11.54;49.06
48606;BME280;8482;54.396;18.590;2023-05-02T04:11:33;101028.75;;;11.56;49.02
48606;BME280;8482;54.396;18.590;2023-05-02T04:13:59;101034.50;;;11.61;48.95
48606;BME280;8482;54.396;18.590;2023-05-02T04:16:25;101034.88;;;11.68;48.61
48606;BME280;8482;54.396;18.590;2023-05-02T04:18:51;101033.69;;;11.72;47.97
48606;BME280;8482;54.396;18.590;2023-05-02T04:21:17;101029.09;;;11.74;47.65
48606;BME280;8482;54.396;18.590;2023-05-02T04:23:42;101030.50;;;11.78;47.62
48606;BME280;8482;54.396;18.590;2023-05-02T04:26:08;101034.25;;;11.87;47.40
48606;BME280;8482;54.396;18.590;2023-05-02T04:28:34;101038.22;;;11.93;46.99
48606;BME280;8482;54.396;18.590;2023-05-02T04:31:01;101035.47;;;11.94;46.65
48606;BME280;8482;54.396;18.590;2023-05-02T04:33:28;101047.06;;;12.05;46.31
48606;BME280;8482;54.396;18.590;2023-05-02T04:35:55;101050.09;;;12.11;45.72
48606;BME280;8482;54.396;18.590;2023-05-02T04:38:20;101043.44;;;12.17;45.02
48606;BME280;8482;54.396;18.590;2023-05-02T04:40:51;101050.06;;;12.23;44.84
48606;BME280;8482;54.396;18.590;2023-05-02T04:43:17;101047.03;;;12.27;44.85
48606;BME280;8482;54.396;18.590;2023-05-02T04:45:43;101045.09;;;12.30;44.48
48606;BME280;8482;54.396;18.590;2023-05-02T04:48:08;101049.78;;;12.37;44.50
48606;BME280;8482;54.396;18.590;2023-05-02T04:50:34;101034.53;;;12.39;43.99
48606;BME280;8482;54.396;18.590;2023-05-02T04:53:00;101038.25;;;12.48;43.78
48606;BME280;8482;54.396;18.590;2023-05-02T04:55:26;101046.69;;;12.53;43.54
48606;BME280;8482;54.396;18.590;2023-05-02T04:57:52;101050.66;;;12.59;43.20
48606;BME280;8482;54.396;18.590;2023-05-02T05:00:17;101044.84;;;12.65;43.15
48606;BME280;8482;54.396;18.590;2023-05-02T05:02:43;101048.66;;;12.72;42.90
48606;BME280;8482;54.396;18.590;2023-05-02T05:05:09;101042.13;;;12.77;42.83
48606;BME280;8482;54.396;18.590;2023-05-02T05:07:35;101040.50;;;12.85;42.70
48606;BME280;8482;54.396;18.590;2023-05-02T05:10:00;101039.97;;;12.92;42.43
48606;BME280;8482;54.396;18.590;2023-05-02T05:12:27;101049.72;;;13.02;42.07
48606;BME280;8482;54.396;18.590;2023-05-02T05:14:52;101053.69;;;13.08;42.11
48606;BME280;8482;54.396;18.590;2023-05-02T05:17:18;101052.31;;;13.14;41.65
48606;BME280;8482;54.396;18.590;2023-05-02T05:19:44;101047.47;;;13.19;41.99
48606;BME280;8482;54.396;18.590;2023-05-02T05:22:10;101046.09;;;13.25;41.52
48606;BME280;8482;54.396;18.590;2023-05-02T05:24:35;101039.91;;;13.24;41.37
48606;BME280;8482;54.396;18.590;2023-05-02T05:27:02;101048.94;;;13.33;41.56
48606;BME280;8482;54.396;18.590;2023-05-02T05:29:30;101060.88;;;13.39;42.13
48606;BME280;8482;54.396;18.590;2023-05-02T05:31:57;101064.03;;;13.44;42.04
48606;BME280;8482;54.396;18.590;2023-05-02T05:34:23;101064.84;;;13.44;42.07
48606;BME280;8482;54.396;18.590;2023-05-02T05:36:49;101062.78;;;13.48;41.87
48606;BME280;8482;54.396;18.590;2023-05-02T05:39:15;101066.03;;;13.52;41.86
48606;BME280;8482;54.396;18.590;2023-05-02T05:41:41;101056.91;;;13.54;41.91
48606;BME280;8482;54.396;18.590;2023-05-02T05:44:07;101063.69;;;13.58;41.90
48606;BME280;8482;54.396;18.590;2023-05-02T05:46:33;101067.91;;;13.61;41.81
48606;BME280;8482;54.396;18.590;2023-05-02T05:48:59;101065.78;;;13.64;41.70
48606;BME280;8482;54.396;18.590;2023-05-02T05:51:25;101074.66;;;13.65;41.92
48606;BME280;8482;54.396;18.590;2023-05-02T05:53:52;101081.41;;;13.69;41.79
48606;BME280;8482;54.396;18.590;2023-05-02T05:56:18;101085.63;;;13.72;42.16
48606;BME280;8482;54.396;18.590;2023-05-02T05:58:44;101081.84;;;13.74;41.90
48606;BME280;8482;54.396;18.590;2023-05-02T06:01:10;101091.53;;;13.75;42.31
48606;BME280;8482;54.396;18.590;2023-05-02T06:03:36;101091.69;;;13.74;42.26
48606;BME280;8482;54.396;18.590;2023-05-02T06:06:02;101090.81;;;13.73;42.16
48606;BME280;8482;54.396;18.590;2023-05-02T06:08:28;101092.66;;;13.73;42.22
48606;BME280;8482;54.396;18.590;2023-05-02T06:10:54;101096.88;;;13.75;42.53
48606;BME280;8482;54.396;18.590;2023-05-02T06:13:20;101092.38;;;13.76;42.75
48606;BME280;8482;54.396;18.590;2023-05-02T06:15:46;101094.19;;;13.75;42.91
48606;BME280;8482;54.396;18.590;2023-05-02T06:18:13;101100.25;;;13.77;42.57
48606;BME280;8482;54.396;18.590;2023-05-02T06:20:39;101100.25;;;13.77;42.71
48606;BME280;8482;54.396;18.590;2023-05-02T06:23:05;101100.81;;;13.81;42.60
48606;BME280;8482;54.396;18.590;2023-05-02T06:25:30;101096.47;;;13.80;42.97
48606;BME280;8482;54.396;18.590;2023-05-02T06:27:58;101105.88;;;13.84;43.03
48606;BME280;8482;54.396;18.590;2023-05-02T06:30:24;101100.69;;;13.83;43.24
48606;BME280;8482;54.396;18.590;2023-05-02T06:32:50;101110.66;;;13.90;43.35
48606;BME280;8482;54.396;18.590;2023-05-02T06:35:15;101117.56;;;13.93;42.88
48606;BME280;8482;54.396;18.590;2023-05-02T06:37:41;101122.63;;;13.96;42.82
48606;BME280;8482;54.396;18.590;2023-05-02T06:40:08;101119.69;;;13.99;43.12
48606;BME280;8482;54.396;18.590;2023-05-02T06:42:34;101124.03;;;14.00;43.23
48606;BME280;8482;54.396;18.590;2023-05-02T06:45:00;101127.28;;;14.04;43.04
48606;BME280;8482;54.396;18.590;2023-05-02T06:47:26;101130.94;;;14.03;43.32
48606;BME280;8482;54.396;18.590;2023-05-02T06:49:53;101126.31;;;14.05;43.10
48606;BME280;8482;54.396;18.590;2023-05-02T06:52:20;101136.44;;;14.11;43.35
48606;BME280;8482;54.396;18.590;2023-05-02T06:54:46;101138.97;;;14.13;43.36
48606;BME280;8482;54.396;18.590;2023-05-02T06:57:12;101137.47;;;14.20;42.97
48606;BME280;8482;54.396;18.590;2023-05-02T06:59:37;101141.69;;;14.22;42.66
48606;BME280;8482;54.396;18.590;2023-05-02T07:02:03;101151.38;;;14.23;42.78
48606;BME280;8482;54.396;18.590;2023-05-02T07:04:29;101145.88;;;14.25;43.16
48606;BME280;8482;54.396;18.590;2023-05-02T07:06:55;101151.81;;;14.29;42.83
48606;BME280;8482;54.396;18.590;2023-05-02T07:09:21;101149.84;;;14.31;43.61
48606;BME280;8482;54.396;18.590;2023-05-02T07:11:47;101146.34;;;14.30;43.11
48606;BME280;8482;54.396;18.590;2023-05-02T07:14:13;101158.69;;;14.31;42.88
48606;BME280;8482;54.396;18.590;2023-05-02T07:16:39;101159.41;;;14.33;43.36
48606;BME280;8482;54.396;18.590;2023-05-02T07:19:04;101156.16;;;14.30;43.66
48606;BME280;8482;54.396;18.590;2023-05-02T07:21:31;101163.78;;;14.34;43.51
48606;BME280;8482;54.396;18.590;2023-05-02T07:23:57;101171.09;;;14.42;43.10
48606;BME280;8482;54.396;18.590;2023-05-02T07:26:23;101166.34;;;14.46;43.29
48606;BME280;8482;54.396;18.590;2023-05-02T07:28:50;101170.41;;;14.50;43.44
48606;BME280;8482;54.396;18.590;2023-05-02T07:31:16;101178.56;;;14.48;43.35
48606;BME280;8482;54.396;18.590;2023-05-02T07:33:42;101180.69;;;14.54;43.04
48606;BME280;8482;54.396;18.590;2023-05-02T07:36:08;101175.47;;;14.53;43.25
48606;BME280;8482;54.396;18.590;2023-05-02T07:38:34;101167.59;;;14.51;43.27
48606;BME280;8482;54.396;18.590;2023-05-02T07:41:00;101182.94;;;14.59;43.33
48606;BME280;8482;54.396;18.590;2023-05-02T07:43:26;101183.78;;;14.60;43.34
48606;BME280;8482;54.396;18.590;2023-05-02T07:45:52;101188.13;;;14.61;43.62
48606;BME280;8482;54.396;18.590;2023-05-02T07:48:18;101199.38;;;14.64;43.50
48606;BME280;8482;54.396;18.590;2023-05-02T07:50:45;101194.91;;;14.65;43.42
48606;BME280;8482;54.396;18.590;2023-05-02T07:53:11;101196.47;;;14.67;43.42
48606;BME280;8482;54.396;18.590;2023-05-02T07:55:36;101201.66;;;14.69;43.71
48606;BME280;8482;54.396;18.590;2023-05-02T07:58:02;101208.69;;;14.70;44.16
48606;BME280;8482;54.396;18.590;2023-05-02T08:00:28;101215.72;;;14.71;44.14
48606;BME280;8482;54.396;18.590;2023-05-02T08:02:55;101200.00;;;14.68;44.24
48606;BME280;8482;54.396;18.590;2023-05-02T08:05:21;101207.28;;;14.76;44.04
48606;BME280;8482;54.396;18.590;2023-05-02T08:07:47;101208.88;;;14.78;44.00
48606;BME280;8482;54.396;18.590;2023-05-02T08:10:13;101208.59;;;14.81;44.31
48606;BME280;8482;54.396;18.590;2023-05-02T08:12:40;101208.19;;;14.86;44.14
48606;BME280;8482;54.396;18.590;2023-05-02T08:15:10;101214.91;;;14.90;44.34
48606;BME280;8482;54.396;18.590;2023-05-02T08:17:36;101211.00;;;14.94;44.36
48606;BME280;8482;54.396;18.590;2023-05-02T08:20:02;101205.94;;;15.01;44.31
48606;BME280;8482;54.396;18.590;2023-05-02T08:22:28;101202.00;;;15.05;44.49
48606;BME280;8482;54.396;18.590;2023-05-02T08:24:54;101204.25;;;15.10;44.06
48606;BME280;8482;54.396;18.590;2023-05-02T08:27:20;101204.41;;;15.18;43.77
48606;BME280;8482;54.396;18.590;2023-05-02T08:29:46;101206.25;;;15.27;42.94
48606;BME280;8482;54.396;18.590;2023-05-02T08:32:11;101212.53;;;15.36;42.25
48606;BME280;8482;54.396;18.590;2023-05-02T08:34:37;101217.19;;;15.44;41.44
48606;BME280;8482;54.396;18.590;2023-05-02T08:37:08;101220.72;;;15.54;41.45
48606;BME280;8482;54.396;18.590;2023-05-02T08:39:34;101217.03;;;15.65;40.37
48606;BME280;8482;54.396;18.590;2023-05-02T08:42:00;101230.38;;;15.75;40.10
48606;BME280;8482;54.396;18.590;2023-05-02T08:44:26;101224.06;;;15.86;39.49
48606;BME280;8482;54.396;18.590;2023-05-02T08:46:54;101227.28;;;15.99;39.64
48606;BME280;8482;54.396;18.590;2023-05-02T08:49:24;101227.94;;;16.11;39.77
48606;BME280;8482;54.396;18.590;2023-05-02T08:51:51;101233.69;;;16.16;37.90
48606;BME280;8482;54.396;18.590;2023-05-02T08:54:19;101237.34;;;16.25;36.94
48606;BME280;8482;54.396;18.590;2023-05-02T08:56:46;101248.44;;;16.30;37.07
48606;BME280;8482;54.396;18.590;2023-05-02T08:59:12;101247.69;;;16.38;36.69
48606;BME280;8482;54.396;18.590;2023-05-02T09:01:43;101238.38;;;16.42;36.14
48606;BME280;8482;54.396;18.590;2023-05-02T09:04:10;101241.75;;;16.44;36.47
48606;BME280;8482;54.396;18.590;2023-05-02T09:06:37;101240.56;;;16.57;35.53
48606;BME280;8482;54.396;18.590;2023-05-02T09:09:02;101242.72;;;16.53;35.98
48606;BME280;8482;54.396;18.590;2023-05-02T09:11:28;101262.78;;;16.67;35.49
48606;BME280;8482;54.396;18.590;2023-05-02T09:13:54;101262.34;;;16.72;35.34
48606;BME280;8482;54.396;18.590;2023-05-02T09:16:23;101259.63;;;16.81;35.24
48606;BME280;8482;54.396;18.590;2023-05-02T09:18:52;101277.91;;;16.86;35.54
48606;BME280;8482;54.396;18.590;2023-05-02T09:21:20;101273.09;;;16.90;35.75
48606;BME280;8482;54.396;18.590;2023-05-02T09:23:49;101281.69;;;16.93;36.17
48606;BME280;8482;54.396;18.590;2023-05-02T09:26:19;101289.00;;;17.01;36.29
48606;BME280;8482;54.396;18.590;2023-05-02T09:28:49;101278.28;;;17.01;36.54
48606;BME280;8482;54.396;18.590;2023-05-02T09:31:27;101293.75;;;17.07;36.47
48606;BME280;8482;54.396;18.590;2023-05-02T09:34:11;101295.28;;;17.10;36.38
48606;BME280;8482;54.396;18.590;2023-05-02T09:36:45;101297.38;;;17.16;36.61
48606;BME280;8482;54.396;18.590;2023-05-02T09:39:17;101299.91;;;17.18;36.58
48606;BME280;8482;54.396;18.590;2023-05-02T09:41:45;101298.06;;;17.18;36.82
48606;BME280;8482;54.396;18.590;2023-05-02T09:44:18;101307.19;;;17.25;37.09
48606;BME280;8482;54.396;18.590;2023-05-02T09:46:55;101307.34;;;17.24;37.65
48606;BME280;8482;54.396;18.590;2023-05-02T09:49:43;101317.09;;;17.25;38.21
48606;BME280;8482;54.396;18.590;2023-05-02T09:52:16;101321.56;;;17.24;39.52
48606;BME280;8482;54.396;18.590;2023-05-02T09:54:43;101328.47;;;17.27;40.13
48606;BME280;8482;54.396;18.590;2023-05-02T09:57:10;101331.84;;;17.29;41.13
48606;BME280;8482;54.396;18.590;2023-05-02T09:59:38;101330.72;;;17.31;41.04
48606;BME280;8482;54.396;18.590;2023-05-02T10:02:05;101347.63;;;17.32;40.77
48606;BME280;8482;54.396;18.590;2023-05-02T10:04:33;101338.66;;;17.23;40.91
48606;BME280;8482;54.396;18.590;2023-05-02T10:07:01;101348.09;;;17.27;41.88
48606;BME280;8482;54.396;18.590;2023-05-02T10:09:28;101356.13;;;17.27;42.44
48606;BME280;8482;54.396;18.590;2023-05-02T10:12:01;101355.84;;;17.30;42.89
48606;BME280;8482;54.396;18.590;2023-05-02T10:14:38;101364.59;;;17.33;43.71
48606;BME280;8482;54.396;18.590;2023-05-02T10:17:21;101362.91;;;17.31;43.98
48606;BME280;8482;54.396;18.590;2023-05-02T10:19:59;101366.94;;;17.36;44.67
48606;BME280;8482;54.396;18.590;2023-05-02T10:22:26;101353.88;;;17.33;45.00
48606;BME280;8482;54.396;18.590;2023-05-02T10:24:52;101372.88;;;17.39;45.08
48606;BME280;8482;54.396;18.590;2023-05-02T10:27:18;101364.88;;;17.29;45.36
48606;BME280;8482;54.396;18.590;2023-05-02T10:29:45;101391.25;;;17.34;45.61
48606;BME280;8482;54.396;18.590;2023-05-02T10:32:15;101385.13;;;17.42;44.53
48606;BME280;8482;54.396;18.590;2023-05-02T10:34:42;101391.66;;;17.39;44.14
48606;BME280;8482;54.396;18.590;2023-05-02T10:37:08;101395.38;;;17.28;44.63
48606;BME280;8482;54.396;18.590;2023-05-02T10:39:34;101385.84;;;17.16;45.44
48606;BME280;8482;54.396;18.590;2023-05-02T10:42:03;101395.44;;;17.09;45.60
48606;BME280;8482;54.396;18.590;2023-05-02T10:44:39;101391.97;;;16.98;46.28
48606;BME280;8482;54.396;18.590;2023-05-02T10:47:25;101399.19;;;16.98;46.79
48606;BME280;8482;54.396;18.590;2023-05-02T10:49:52;101401.28;;;16.94;46.44
48606;BME280;8482;54.396;18.590;2023-05-02T10:52:36;101406.09;;;16.91;46.78
48606;BME280;8482;54.396;18.590;2023-05-02T10:55:21;101411.31;;;16.92;47.02
48606;BME280;8482;54.396;18.590;2023-05-02T10:58:20;101408.75;;;17.00;46.80
48606;BME280;8482;54.396;18.590;2023-05-02T11:00:46;101416.72;;;17.20;45.91
48606;BME280;8482;54.396;18.590;2023-05-02T11:03:12;101412.44;;;17.27;44.82
48606;BME280;8482;54.396;18.590;2023-05-02T11:06:04;101425.00;;;17.27;45.48
48606;BME280;8482;54.396;18.590;2023-05-02T11:08:34;101428.13;;;17.22;45.79
48606;BME280;8482;54.396;18.590;2023-05-02T11:11:45;101445.66;;;17.16;46.09
48606;BME280;8482;54.396;18.590;2023-05-02T11:17:06;101446.53;;;17.07;46.49
48606;BME280;8482;54.396;18.590;2023-05-02T11:24:49;101468.25;;;17.04;47.56
48606;BME280;8482;54.396;18.590;2023-05-02T11:30:05;101484.78;;;16.99;48.36
48606;BME280;8482;54.396;18.590;2023-05-02T11:35:23;101513.16;;;16.73;49.12
48606;BME280;8482;54.396;18.590;2023-05-02T11:37:59;101513.59;;;16.58;49.98
48606;BME280;8482;54.396;18.590;2023-05-02T11:40:26;101514.19;;;16.42;50.78
48606;BME280;8482;54.396;18.590;2023-05-02T11:42:53;101520.66;;;16.30;51.14
48606;BME280;8482;54.396;18.590;2023-05-02T11:45:20;101536.56;;;16.21;51.71
48606;BME280;8482;54.396;18.590;2023-05-02T11:47:47;101563.31;;;16.12;53.45
48606;BME280;8482;54.396;18.590;2023-05-02T11:50:14;101554.97;;;15.95;54.46
48606;BME280;8482;54.396;18.590;2023-05-02T11:52:43;101564.72;;;15.75;54.60
48606;BME280;8482;54.396;18.590;2023-05-02T11:55:13;101560.00;;;15.47;54.72
48606;BME280;8482;54.396;18.590;2023-05-02T11:57:40;101585.50;;;15.30;55.14
48606;BME280;8482;54.396;18.590;2023-05-02T12:00:07;101589.75;;;15.12;55.90
48606;BME280;8482;54.396;18.590;2023-05-02T12:02:44;101598.81;;;14.99;56.66
48606;BME280;8482;54.396;18.590;2023-05-02T12:05:12;101605.53;;;14.82;57.25
48606;BME280;8482;54.396;18.590;2023-05-02T12:07:46;101600.25;;;14.71;57.57
48606;BME280;8482;54.396;18.590;2023-05-02T12:10:14;101602.19;;;14.69;57.58
48606;BME280;8482;54.396;18.590;2023-05-02T12:12:43;101596.78;;;14.59;57.36
48606;BME280;8482;54.396;18.590;2023-05-02T12:15:11;101613.41;;;14.51;57.63
48606;BME280;8482;54.396;18.590;2023-05-02T12:17:41;101606.38;;;14.50;57.98
48606;BME280;8482;54.396;18.590;2023-05-02T12:20:11;101614.72;;;14.57;57.66
48606;BME280;8482;54.396;18.590;2023-05-02T12:22:37;101619.31;;;14.66;56.75
48606;BME280;8482;54.396;18.590;2023-05-02T12:25:05;101621.97;;;14.66;56.62
48606;BME280;8482;54.396;18.590;2023-05-02T12:27:31;101633.41;;;14.68;56.61
48606;BME280;8482;54.396;18.590;2023-05-02T12:29:58;101641.44;;;14.57;56.89
48606;BME280;8482;54.396;18.590;2023-05-02T12:32:34;101651.03;;;14.48;56.94
48606;BME280;8482;54.396;18.590;2023-05-02T12:35:02;101667.91;;;14.37;56.24
48606;BME280;8482;54.396;18.590;2023-05-02T12:37:28;101667.34;;;14.22;56.00
48606;BME280;8482;54.396;18.590;2023-05-02T12:39:55;101666.84;;;14.17;55.55
48606;BME280;8482;54.396;18.590;2023-05-02T12:42:24;101676.94;;;14.02;55.66
48606;BME280;8482;54.396;18.590;2023-05-02T12:44:51;101669.75;;;13.91;55.37
48606;BME280;8482;54.396;18.590;2023-05-02T12:47:19;101673.88;;;13.84;55.70
48606;BME280;8482;54.396;18.590;2023-05-02T12:49:59;101676.69;;;13.83;56.00
48606;BME280;8482;54.396;18.590;2023-05-02T12:52:49;101676.19;;;13.77;56.04
48606;BME280;8482;54.396;18.590;2023-05-02T12:55:24;101681.28;;;13.81;56.24
48606;BME280;8482;54.396;18.590;2023-05-02T12:58:01;101688.66;;;13.77;56.37
48606;BME280;8482;54.396;18.590;2023-05-02T13:00:29;101694.84;;;13.77;56.49
48606;BME280;8482;54.396;18.590;2023-05-02T13:02:55;101715.44;;;13.75;56.47
48606;BME280;8482;54.396;18.590;2023-05-02T13:05:21;101713.88;;;13.73;55.95
48606;BME280;8482;54.396;18.590;2023-05-02T13:07:47;101722.34;;;13.67;56.02
48606;BME280;8482;54.396;18.590;2023-05-02T13:10:13;101722.56;;;13.63;55.49
48606;BME280;8482;54.396;18.590;2023-05-02T13:12:45;101720.59;;;13.54;55.23
48606;BME280;8482;54.396;18.590;2023-05-02T13:15:13;101732.47;;;13.50;55.93
48606;BME280;8482;54.396;18.590;2023-05-02T13:17:40;101725.78;;;13.44;55.58
48606;BME280;8482;54.396;18.590;2023-05-02T13:20:07;101747.22;;;13.43;54.60
48606;BME280;8482;54.396;18.590;2023-05-02T13:22:34;101735.81;;;13.41;53.95
48606;BME280;8482;54.396;18.590;2023-05-02T13:25:05;101736.97;;;13.37;54.35
48606;BME280;8482;54.396;18.590;2023-05-02T13:27:32;101742.31;;;13.37;54.00
48606;BME280;8482;54.396;18.590;2023-05-02T13:29:59;101726.69;;;13.32;53.51